KOWD/OWD METAR and TAF weather

Enter ICAO airport designator
Station Type Date Time Source
KOWD METAR 2022/09/26 08:53 UTC NOAA

KOWD 260853Z AUTO 25005KT 10SM FEW004 16/15 A2957 RMK AO2 SLP012 60001 T01560150 53002


Station Type Date Time Source
KOWD Decoded METAR 2022/09/26 08:53 UTC NOAA

NORWOOD MEMORIAL AIRPORT, MA, United States (KOWD) 42-11N 71-10W 19M
Sep 26, 2022 - 04:53 AM EDT / 2022.09.26 0853 UTC
Wind: from the WSW (250 degrees) at 6 MPH (5 KT):0
Visibility: 10 mile(s):0
Sky conditions: mostly clear
Temperature: 60.1 F (15.6 C)
Dew Point: 59.0 F (15.0 C)
Relative Humidity: 96%
Pressure (altimeter): 29.57 in. Hg (1001 hPa)
Pressure tendency: 0.01 inches (0.2 hPa) higher than three hours ago
ob: KOWD 260853Z AUTO 25005KT 10SM FEW004 16/15 A2957 RMK AO2 SLP012 60001 T01560150 53002
cycle: 9

Station Type Date Time Source
KOWD TAF UTC NOAA

Error!

Example: see airport list